createdAt,value
2018-04-07T00:00:53.894Z,4.53
2018-04-07T00:03:55.592Z,4.10
2018-04-07T00:06:57.293Z,4.30
2018-04-07T00:09:58.949Z,4.73
2018-04-07T00:13:00.650Z,4.07
2018-04-07T00:16:02.350Z,4.77
2018-04-07T00:19:04.047Z,4.47
2018-04-07T00:22:05.724Z,4.50
2018-04-07T00:25:07.403Z,4.47
2018-04-07T00:28:09.086Z,4.33
2018-04-07T00:31:10.775Z,4.33
2018-04-07T00:34:12.533Z,4.87
2018-04-07T00:37:14.240Z,4.20
2018-04-07T00:40:15.906Z,3.97
2018-04-07T00:43:17.559Z,4.17
2018-04-07T00:46:19.258Z,4.20
2018-04-07T00:49:20.948Z,4.30
2018-04-07T00:52:22.628Z,3.50
2018-04-07T00:55:24.330Z,3.77
2018-04-07T00:58:25.992Z,3.80
2018-04-07T01:01:27.669Z,4.37
2018-04-07T01:04:29.356Z,3.97
2018-04-07T01:07:31.083Z,3.67
2018-04-07T01:10:32.745Z,3.63
2018-04-07T01:13:34.407Z,3.83
2018-04-07T01:16:36.115Z,3.77
2018-04-07T01:19:37.768Z,3.47
2018-04-07T01:22:39.423Z,3.53
2018-04-07T01:25:41.116Z,3.80
2018-04-07T01:28:42.796Z,4.10
2018-04-07T01:31:44.500Z,3.40
2018-04-07T01:34:46.196Z,3.73
2018-04-07T01:37:47.874Z,3.77
2018-04-07T01:40:49.539Z,3.30
2018-04-07T01:43:51.238Z,3.50
2018-04-07T01:46:52.956Z,3.53
2018-04-07T01:49:54.633Z,3.50
2018-04-07T01:52:56.316Z,3.47
2018-04-07T01:55:58.012Z,3.67
2018-04-07T01:58:59.740Z,3.60
2018-04-07T02:02:01.414Z,4.33
2018-04-07T02:05:03.083Z,3.57
2018-04-07T02:08:04.794Z,3.37
2018-04-07T02:11:06.496Z,3.17
2018-04-07T02:14:08.336Z,3.00
2018-04-07T02:17:10.023Z,3.37
2018-04-07T02:20:11.697Z,3.30
2018-04-07T02:23:13.366Z,3.00
2018-04-07T02:26:15.068Z,3.30
2018-04-07T02:29:16.747Z,3.10
2018-04-07T02:32:18.426Z,3.43
2018-04-07T02:35:20.106Z,3.03
2018-04-07T02:38:21.889Z,3.27
2018-04-07T02:41:23.570Z,3.40
2018-04-07T02:44:25.274Z,3.10
2018-04-07T02:47:26.944Z,3.10
2018-04-07T02:50:28.609Z,3.20
2018-04-07T02:53:30.309Z,2.80
2018-04-07T02:56:31.990Z,3.03
2018-04-07T02:59:33.653Z,3.67
2018-04-07T03:02:35.347Z,3.20
2018-04-07T03:05:37.022Z,3.47
2018-04-07T03:08:38.696Z,3.10
2018-04-07T03:11:40.382Z,3.23
2018-04-07T03:14:42.121Z,2.90
2018-04-07T03:17:43.784Z,2.83
2018-04-07T03:20:45.486Z,3.17
2018-04-07T03:23:47.170Z,2.80
2018-04-07T03:26:48.857Z,2.80
2018-04-07T03:29:50.526Z,2.73
2018-04-07T03:32:52.191Z,3.17
2018-04-07T03:35:53.869Z,3.10
2018-04-07T03:38:55.552Z,2.60
2018-04-07T03:41:57.206Z,2.80
2018-04-07T03:44:58.882Z,3.23
2018-04-07T03:48:00.552Z,3.07
2018-04-07T03:51:02.236Z,2.50
2018-04-07T03:54:03.913Z,2.83
2018-04-07T03:57:05.579Z,2.83
2018-04-07T04:00:07.263Z,3.00
2018-04-07T04:03:09.011Z,2.90
2018-04-07T04:06:10.695Z,3.00
2018-04-07T04:09:12.386Z,2.93
2018-04-07T04:12:14.081Z,2.50
2018-04-07T04:15:15.763Z,2.80
2018-04-07T04:18:17.471Z,2.47
2018-04-07T04:21:19.132Z,2.60
2018-04-07T04:24:20.800Z,2.60
2018-04-07T04:27:22.452Z,2.40
2018-04-07T04:30:24.125Z,2.50
2018-04-07T04:33:25.759Z,2.50
2018-04-07T04:36:27.482Z,2.70
2018-04-07T04:39:29.130Z,2.47
2018-04-07T04:42:30.802Z,2.77
2018-04-07T04:45:32.471Z,2.70
2018-04-07T04:48:34.163Z,2.20
2018-04-07T04:51:35.838Z,2.70
2018-04-07T04:54:37.509Z,2.83
2018-04-07T04:57:39.183Z,2.40
2018-04-07T05:00:40.872Z,2.63
2018-04-07T05:03:42.580Z,3.10
2018-04-07T05:06:44.246Z,2.50
2018-04-07T05:09:45.919Z,2.60
2018-04-07T05:12:47.582Z,2.42
2018-04-07T05:15:49.299Z,2.67
2018-04-07T05:18:51.012Z,2.60
2018-04-07T05:21:52.662Z,2.20
2018-04-07T05:24:54.871Z,2.20
2018-04-07T05:27:56.565Z,2.30
2018-04-07T05:30:58.239Z,2.30
2018-04-07T05:33:59.899Z,2.23
2018-04-07T05:37:01.557Z,2.60
2018-04-07T05:40:03.250Z,2.60
2018-04-07T05:43:04.912Z,2.53
2018-04-07T05:46:06.620Z,2.10
2018-04-07T05:49:08.322Z,2.40
2018-04-07T05:52:09.983Z,2.20
2018-04-07T05:55:11.682Z,2.50
2018-04-07T05:58:13.322Z,2.50
2018-04-07T06:01:14.987Z,2.70
2018-04-07T06:04:16.647Z,2.40
2018-04-07T06:07:18.311Z,2.77
2018-04-07T06:10:19.990Z,2.70
2018-04-07T06:13:21.658Z,2.70
2018-04-07T06:16:23.343Z,2.37
2018-04-07T06:19:25.017Z,2.90
2018-04-07T06:22:26.772Z,3.00
2018-04-07T06:25:28.483Z,4.20
2018-04-07T06:28:30.170Z,4.20
2018-04-07T06:31:31.884Z,4.40
2018-04-07T06:34:33.541Z,4.53
2018-04-07T06:37:35.206Z,4.90
2018-04-07T06:40:36.879Z,5.13
2018-04-07T06:43:38.569Z,4.80
2018-04-07T06:46:40.276Z,4.50
2018-04-07T06:49:41.931Z,4.63
2018-04-07T06:52:43.589Z,4.40
2018-04-07T06:55:45.284Z,4.83
2018-04-07T06:58:46.936Z,4.87
2018-04-07T07:01:48.620Z,4.77
2018-04-07T07:04:50.323Z,4.40
2018-04-07T07:07:51.997Z,4.00
2018-04-07T07:10:53.709Z,4.50
2018-04-07T07:13:55.378Z,4.63
2018-04-07T07:16:57.101Z,4.10
2018-04-07T07:19:58.846Z,4.83
2018-04-07T07:23:00.521Z,4.90
2018-04-07T07:26:02.308Z,4.50
2018-04-07T07:29:03.965Z,4.43
2018-04-07T07:32:05.661Z,5.00
2018-04-07T07:35:07.397Z,4.83
2018-04-07T07:38:09.054Z,4.40
2018-04-07T07:41:10.748Z,4.67
2018-04-07T07:44:12.447Z,4.77
2018-04-07T07:47:14.159Z,4.50
2018-04-07T07:50:15.844Z,4.57
2018-04-07T07:53:17.543Z,5.30
2018-04-07T07:56:19.242Z,4.40
2018-04-07T07:59:20.899Z,4.67
2018-04-07T08:02:22.607Z,4.77
2018-04-07T08:05:24.438Z,4.57
2018-04-07T08:08:26.136Z,4.60
2018-04-07T08:11:27.972Z,4.50
2018-04-07T08:14:29.672Z,4.40
2018-04-07T08:17:31.574Z,4.40
2018-04-07T08:20:33.306Z,4.70
2018-04-07T08:23:34.974Z,4.77
2018-04-07T08:26:36.647Z,4.93
2018-04-07T08:29:38.332Z,4.60
2018-04-07T08:32:40.084Z,4.20
2018-04-07T08:35:42.055Z,4.27
2018-04-07T08:38:43.796Z,4.30
2018-04-07T08:41:45.515Z,5.00
2018-04-07T08:44:47.321Z,4.77
2018-04-07T08:47:49.107Z,3.83
2018-04-07T08:50:50.972Z,4.70
2018-04-07T08:53:52.678Z,4.77
2018-04-07T08:56:54.762Z,4.17
2018-04-07T08:59:56.449Z,4.73
2018-04-07T09:02:58.188Z,4.63
2018-04-07T09:05:59.908Z,4.30
2018-04-07T09:09:01.596Z,4.40
2018-04-07T09:12:03.305Z,4.10
2018-04-07T09:15:04.992Z,5.00
2018-04-07T09:18:06.786Z,4.87
2018-04-07T09:21:08.557Z,4.33
2018-04-07T09:24:10.438Z,4.43
2018-04-07T09:27:12.132Z,4.67
2018-04-07T09:30:13.826Z,4.37
2018-04-07T09:33:15.547Z,4.53
2018-04-07T09:36:17.250Z,4.30
2018-04-07T09:39:19.007Z,6.10
2018-04-07T09:42:20.732Z,5.53
2018-04-07T09:45:22.499Z,6.30
2018-04-07T09:48:24.235Z,6.13
2018-04-07T09:51:25.915Z,5.80
2018-04-07T09:54:27.569Z,5.77
2018-04-07T09:57:29.260Z,5.80
2018-04-07T10:00:30.938Z,5.80
2018-04-07T10:03:32.642Z,5.90
2018-04-07T10:06:34.383Z,6.03
2018-04-07T10:09:36.077Z,6.90
2018-04-07T10:12:37.761Z,6.43
2018-04-07T10:15:39.498Z,6.27
2018-04-07T10:18:41.185Z,5.63
2018-04-07T10:21:42.886Z,5.90
2018-04-07T10:24:44.585Z,6.43
2018-04-07T10:27:46.298Z,5.50
2018-04-07T10:30:48.021Z,7.63
2018-04-07T10:33:49.958Z,6.83
2018-04-07T10:36:51.699Z,6.87
2018-04-07T10:39:53.402Z,6.07
2018-04-07T10:42:55.096Z,6.30
2018-04-07T10:45:56.824Z,5.93
2018-04-07T10:48:58.519Z,5.73
2018-04-07T10:52:00.244Z,5.60
2018-04-07T10:55:01.943Z,5.87
2018-04-07T10:58:03.650Z,5.17
2018-04-07T11:01:05.416Z,5.33
2018-04-07T11:04:07.109Z,5.17
2018-04-07T11:07:08.793Z,4.93
2018-04-07T11:10:10.472Z,5.30
2018-04-07T11:13:12.138Z,5.50
2018-04-07T11:16:13.860Z,4.73
2018-04-07T11:19:15.533Z,4.67
2018-04-07T11:22:17.232Z,4.67
2018-04-07T11:25:18.920Z,5.30
2018-04-07T11:28:20.830Z,4.60
2018-04-07T11:31:22.526Z,4.83
2018-04-07T11:34:24.213Z,4.63
2018-04-07T11:37:25.969Z,4.37
2018-04-07T11:40:27.673Z,4.57
2018-04-07T11:43:29.360Z,4.77
2018-04-07T11:46:31.077Z,4.30
2018-04-07T11:49:32.789Z,4.47
2018-04-07T11:52:34.517Z,5.07
2018-04-07T11:55:36.209Z,4.47
2018-04-07T11:58:37.906Z,4.47
2018-04-07T12:01:39.609Z,4.10
2018-04-07T12:04:41.319Z,4.20
2018-04-07T12:07:43.139Z,4.57
2018-04-07T12:10:44.830Z,4.10
2018-04-07T12:13:46.557Z,4.93
2018-04-07T12:16:48.304Z,4.53
2018-04-07T12:19:49.979Z,4.53
2018-04-07T12:22:51.665Z,4.33
2018-04-07T12:25:53.360Z,4.40
2018-04-07T12:28:55.028Z,4.57
2018-04-07T12:31:56.728Z,4.20
2018-04-07T12:34:58.431Z,4.10
2018-04-07T12:38:00.151Z,4.27
2018-04-07T12:41:01.839Z,4.10
2018-04-07T12:44:03.516Z,4.00
2018-04-07T12:47:05.220Z,4.10
2018-04-07T12:50:06.886Z,4.27
2018-04-07T12:53:08.564Z,4.17
2018-04-07T12:56:10.223Z,3.77
2018-04-07T12:59:11.926Z,4.33
2018-04-07T13:02:13.610Z,3.90
2018-04-07T13:05:15.351Z,4.07
2018-04-07T13:08:17.025Z,3.93
2018-04-07T13:11:18.704Z,4.00
2018-04-07T13:14:20.386Z,3.97
2018-04-07T13:17:22.093Z,4.30
2018-04-07T13:20:23.774Z,3.60
2018-04-07T13:23:25.515Z,4.63
2018-04-07T13:26:27.189Z,4.30
2018-04-07T13:29:28.877Z,3.93
2018-04-07T13:32:30.582Z,4.07
2018-04-07T13:35:32.323Z,4.10
2018-04-07T13:38:34.035Z,4.13
2018-04-07T13:41:35.702Z,3.67
2018-04-07T13:44:37.416Z,4.17
2018-04-07T13:47:39.103Z,4.03
2018-04-07T13:50:40.809Z,4.30
2018-04-07T13:53:42.525Z,4.20
2018-04-07T13:56:44.260Z,3.97
2018-04-07T13:59:46.051Z,4.43
2018-04-07T14:02:47.764Z,4.30
2018-04-07T14:05:49.451Z,4.30
2018-04-07T14:08:51.274Z,4.03
2018-04-07T14:11:52.956Z,4.37
2018-04-07T14:14:55.104Z,4.20
2018-04-07T14:17:56.867Z,3.93
2018-04-07T14:20:58.576Z,4.00
2018-04-07T14:24:00.361Z,3.67
2018-04-07T14:27:02.030Z,3.80
2018-04-07T14:30:03.733Z,4.00
2018-04-07T14:33:05.425Z,4.10
2018-04-07T14:36:07.124Z,4.03
2018-04-07T14:39:08.797Z,3.87
2018-04-07T14:42:10.495Z,4.30
2018-04-07T14:45:12.192Z,4.03
2018-04-07T14:48:14.027Z,3.77
2018-04-07T14:51:15.745Z,4.10
2018-04-07T14:54:17.437Z,3.87
2018-04-07T14:57:19.169Z,4.30
2018-04-07T15:00:21.000Z,4.60
2018-04-07T15:03:22.837Z,4.73
2018-04-07T15:06:24.900Z,4.63
2018-04-07T15:09:26.594Z,4.47
2018-04-07T15:12:28.270Z,4.30
2018-04-07T15:15:30.073Z,4.50
2018-04-07T15:18:31.895Z,4.77
2018-04-07T15:21:33.746Z,4.37
2018-04-07T15:24:35.477Z,4.17
2018-04-07T15:27:37.192Z,4.43
2018-04-07T15:30:38.891Z,4.20
2018-04-07T15:33:40.600Z,4.60
2018-04-07T15:36:42.310Z,4.10
2018-04-07T15:39:44.025Z,4.13
2018-04-07T15:42:45.752Z,4.13
2018-04-07T15:45:47.449Z,3.87
2018-04-07T15:48:49.194Z,4.53
2018-04-07T15:51:50.961Z,3.77
2018-04-07T15:54:52.692Z,4.13
2018-04-07T15:57:54.398Z,4.07
2018-04-07T16:00:56.122Z,4.17
2018-04-07T16:03:57.843Z,4.50
2018-04-07T16:06:59.514Z,3.90
2018-04-07T16:10:01.319Z,4.03
2018-04-07T16:13:03.053Z,4.30
2018-04-07T16:16:04.756Z,4.07
2018-04-07T16:19:06.494Z,3.77
2018-04-07T16:22:08.259Z,3.97
2018-04-07T16:25:10.032Z,4.10
2018-04-07T16:28:11.775Z,4.00
2018-04-07T16:31:13.515Z,4.17
2018-04-07T16:34:15.261Z,4.40
2018-04-07T16:37:17.638Z,3.73
2018-04-07T16:40:19.404Z,4.37
2018-04-07T16:43:21.106Z,4.73
2018-04-07T16:46:22.927Z,3.93
2018-04-07T16:49:24.674Z,3.70
2018-04-07T16:52:26.408Z,4.00
2018-04-07T16:55:28.102Z,4.10
2018-04-07T16:58:29.852Z,3.97
2018-04-07T17:01:31.530Z,4.03
2018-04-07T17:04:33.242Z,4.40
2018-04-07T17:07:34.968Z,4.30
2018-04-07T17:10:36.770Z,4.33
2018-04-07T17:13:38.504Z,3.90
2018-04-07T17:16:40.188Z,3.97
2018-04-07T17:19:41.940Z,4.07
2018-04-07T17:22:43.713Z,3.83
2018-04-07T17:25:45.465Z,4.27
2018-04-07T17:28:47.159Z,4.07
2018-04-07T17:31:48.922Z,3.90
2018-04-07T17:34:50.666Z,4.30
2018-04-07T17:37:52.353Z,3.63
2018-04-07T17:40:54.243Z,3.97
2018-04-07T17:43:55.942Z,3.80
2018-04-07T17:46:57.703Z,3.90
2018-04-07T17:49:59.435Z,4.20
2018-04-07T17:53:01.231Z,4.33
2018-04-07T17:56:03.001Z,4.10
2018-04-07T17:59:04.693Z,4.37
2018-04-07T18:02:06.457Z,4.10
2018-04-07T18:05:08.249Z,3.90
2018-04-07T18:08:09.978Z,4.00
2018-04-07T18:11:11.728Z,4.00
2018-04-07T18:14:13.508Z,4.40
2018-04-07T18:17:15.372Z,4.37
2018-04-07T18:20:17.201Z,3.77
2018-04-07T18:23:18.897Z,3.73
2018-04-07T18:26:20.690Z,3.93
2018-04-07T18:29:22.393Z,4.60
2018-04-07T18:32:24.181Z,4.17
2018-04-07T18:35:25.929Z,4.23
2018-04-07T18:38:27.637Z,4.10
2018-04-07T18:41:29.442Z,4.50
2018-04-07T18:44:31.172Z,4.70
2018-04-07T18:47:32.897Z,4.93
2018-04-07T18:50:34.652Z,5.37
2018-04-07T18:53:36.363Z,5.73
2018-04-07T18:56:38.857Z,5.40
2018-04-07T18:59:40.778Z,6.47
2018-04-07T19:02:43.812Z,5.97
2018-04-07T19:05:46.023Z,6.10
2018-04-07T19:08:48.882Z,5.50
2018-04-07T19:11:50.701Z,5.83
2018-04-07T19:14:54.627Z,5.60
2018-04-07T19:17:56.351Z,5.40
2018-04-07T19:20:58.251Z,5.40
2018-04-07T19:24:00.354Z,5.53
2018-04-07T19:27:02.615Z,5.47
2018-04-07T19:30:04.467Z,5.37
2018-04-07T19:33:06.884Z,5.10
2018-04-07T19:36:08.992Z,5.20
2018-04-07T19:39:11.271Z,5.40
2018-04-07T19:42:14.886Z,5.00
2018-04-07T19:45:16.755Z,5.23
2018-04-07T19:48:18.530Z,5.33
2018-04-07T19:51:20.672Z,5.13
2018-04-07T19:54:22.629Z,5.53
2018-04-07T19:57:24.358Z,5.33
2018-04-07T20:00:26.084Z,4.63
2018-04-07T20:03:29.037Z,4.47
2018-04-07T20:06:30.901Z,5.10
2018-04-07T20:09:32.791Z,5.37
2018-04-07T20:12:34.808Z,4.67
2018-04-07T20:15:36.789Z,5.17
2018-04-07T20:18:38.679Z,5.00
2018-04-07T20:21:40.402Z,4.80
2018-04-07T20:24:42.291Z,5.50
2018-04-07T20:27:44.039Z,5.67
2018-04-07T20:30:45.797Z,9.93
2018-04-07T20:33:47.510Z,8.27
2018-04-07T20:36:49.250Z,8.50
2018-04-07T20:39:51.177Z,8.80
2018-04-07T20:42:53.086Z,8.10
2018-04-07T20:45:54.876Z,8.03
2018-04-07T20:48:56.591Z,7.57
2018-04-07T20:51:59.220Z,8.30
2018-04-07T20:55:01.029Z,7.87
2018-04-07T20:58:02.797Z,7.37
2018-04-07T21:01:04.825Z,7.40
2018-04-07T21:04:06.564Z,7.43
2018-04-07T21:07:08.510Z,7.73
2018-04-07T21:10:10.274Z,6.67
2018-04-07T21:13:12.009Z,7.53
2018-04-07T21:16:13.765Z,7.23
2018-04-07T21:19:15.476Z,7.30
2018-04-07T21:22:17.213Z,7.13
2018-04-07T21:25:19.008Z,7.30
2018-04-07T21:28:20.717Z,7.23
2018-04-07T21:31:22.462Z,6.37
2018-04-07T21:34:24.296Z,6.60
2018-04-07T21:37:26.013Z,6.67
2018-04-07T21:40:27.810Z,6.73
2018-04-07T21:43:29.585Z,6.70
2018-04-07T21:46:31.306Z,6.83
2018-04-07T21:49:33.061Z,6.43
2018-04-07T21:52:34.855Z,6.40
2018-04-07T21:55:36.708Z,6.50
2018-04-07T21:58:38.412Z,5.80
2018-04-07T22:01:40.220Z,5.87
2018-04-07T22:04:41.906Z,5.90
2018-04-07T22:07:43.599Z,5.27
2018-04-07T22:10:45.323Z,5.23
2018-04-07T22:13:47.038Z,5.60
2018-04-07T22:16:48.713Z,5.30
2018-04-07T22:19:50.385Z,4.70
2018-04-07T22:22:52.154Z,5.23
2018-04-07T22:25:53.897Z,5.20
2018-04-07T22:28:55.601Z,4.87
2018-04-07T22:31:57.312Z,5.30
2018-04-07T22:34:59.009Z,5.07
2018-04-07T22:38:00.730Z,5.20
2018-04-07T22:41:02.428Z,5.10
2018-04-07T22:44:04.135Z,5.67
2018-04-07T22:47:05.830Z,5.30
2018-04-07T22:50:07.577Z,5.60
2018-04-07T22:53:09.247Z,5.33
2018-04-07T22:56:11.085Z,5.33
2018-04-07T22:59:12.747Z,5.30
2018-04-07T23:02:14.455Z,5.20
2018-04-07T23:05:16.117Z,5.10
2018-04-07T23:08:17.877Z,4.83
2018-04-07T23:11:19.548Z,4.63
2018-04-07T23:14:21.234Z,4.93
2018-04-07T23:17:22.911Z,4.77
2018-04-07T23:20:24.594Z,4.67
2018-04-07T23:23:26.268Z,4.67
2018-04-07T23:26:27.952Z,5.10
2018-04-07T23:29:29.627Z,5.17
2018-04-07T23:32:31.326Z,4.70
2018-04-07T23:35:32.991Z,5.03
2018-04-07T23:38:34.685Z,5.37
2018-04-07T23:41:36.377Z,4.83
2018-04-07T23:44:38.052Z,5.03
2018-04-07T23:47:39.732Z,5.13
2018-04-07T23:50:41.543Z,4.70
2018-04-07T23:53:43.240Z,4.77
2018-04-07T23:56:44.927Z,4.90
2018-04-07T23:59:46.605Z,4.70
